createdAt,value
2023-03-14T00:02:29.298Z,991
2023-03-14T00:12:30.736Z,991
2023-03-14T00:22:31.898Z,992
2023-03-14T00:32:33.122Z,992
2023-03-14T00:42:34.309Z,992
2023-03-14T00:52:35.472Z,992
2023-03-14T01:02:36.641Z,993
2023-03-14T01:12:37.854Z,993
2023-03-14T01:22:38.976Z,993
2023-03-14T01:32:40.207Z,993
2023-03-14T01:42:41.621Z,993
2023-03-14T01:52:42.800Z,993
2023-03-14T02:02:43.936Z,994
2023-03-14T02:12:45.152Z,994
2023-03-14T02:22:46.291Z,993
2023-03-14T02:32:47.441Z,994
2023-03-14T02:42:48.663Z,995
2023-03-14T02:52:49.950Z,994
2023-03-14T03:02:51.352Z,994
2023-03-14T03:12:52.542Z,994
2023-03-14T03:22:53.700Z,994
2023-03-14T03:32:54.915Z,994
2023-03-14T03:42:56.100Z,993
2023-03-14T03:52:57.245Z,993
2023-03-14T04:02:58.409Z,993
2023-03-14T04:12:59.806Z,993
2023-03-14T04:23:01.152Z,993
2023-03-14T04:33:02.966Z,993
2023-03-14T04:43:04.831Z,993
2023-03-14T04:53:06.629Z,993
2023-03-14T05:03:08.422Z,993
2023-03-14T05:13:09.962Z,994
2023-03-14T05:23:11.416Z,994
2023-03-14T05:33:12.606Z,995
2023-03-14T05:43:13.770Z,995
2023-03-14T05:53:14.922Z,995
2023-03-14T06:03:16.072Z,995
2023-03-14T06:13:17.303Z,996
2023-03-14T06:23:18.420Z,996
2023-03-14T06:33:19.590Z,996
2023-03-14T06:43:21.080Z,997
2023-03-14T06:53:22.280Z,997
2023-03-14T07:03:23.460Z,997
2023-03-14T07:13:24.599Z,998
2023-03-14T07:23:25.752Z,998
2023-03-14T07:33:26.907Z,998
2023-03-14T07:43:28.066Z,998
2023-03-14T07:53:29.205Z,999
2023-03-14T08:03:30.600Z,999
2023-03-14T08:13:31.776Z,999
2023-03-14T08:23:32.957Z,999
2023-03-14T08:33:34.087Z,1000
2023-03-14T08:43:35.235Z,1000
2023-03-14T08:53:36.383Z,1001
2023-03-14T09:03:37.528Z,1001
2023-03-14T09:13:38.723Z,1001
2023-03-14T09:23:39.980Z,1001
2023-03-14T09:33:41.393Z,1002
2023-03-14T09:43:42.616Z,1002
2023-03-14T09:53:43.835Z,1002
2023-03-14T10:03:44.991Z,1002
2023-03-14T10:13:46.236Z,1003
2023-03-14T10:23:49.647Z,1003
2023-03-14T10:33:51.295Z,1003
2023-03-14T10:43:52.490Z,1003
2023-03-14T10:53:53.678Z,1004
2023-03-14T11:03:54.843Z,1004
2023-03-14T11:13:56.009Z,1004
2023-03-14T11:23:57.164Z,1004
2023-03-14T11:33:58.398Z,1004
2023-03-14T11:43:59.685Z,1004
2023-03-14T11:54:01.122Z,1004
2023-03-14T12:04:02.837Z,1005
2023-03-14T12:14:05.128Z,1005
2023-03-14T12:24:06.972Z,1005
2023-03-14T12:34:08.644Z,1005
2023-03-14T12:44:10.127Z,1005
2023-03-14T12:54:11.587Z,1005
2023-03-14T13:04:12.934Z,1005
2023-03-14T13:14:14.127Z,1005
2023-03-14T13:24:15.277Z,1005
2023-03-14T13:34:16.473Z,1005
2023-03-14T13:44:17.813Z,1005
2023-03-14T13:54:19.084Z,1005
2023-03-14T14:04:20.439Z,1005
2023-03-14T14:14:21.653Z,1005
2023-03-14T14:24:22.783Z,1006
2023-03-14T14:34:24.060Z,1006
2023-03-14T14:44:25.217Z,1006
2023-03-14T14:54:26.408Z,1006
2023-03-14T15:04:27.587Z,1006
2023-03-14T15:14:28.768Z,1006
2023-03-14T15:24:29.930Z,1006
2023-03-14T15:34:31.319Z,1006
2023-03-14T15:44:32.653Z,1006
2023-03-14T15:54:33.810Z,1006
2023-03-14T16:04:35.094Z,1006
2023-03-14T16:14:36.412Z,1006
2023-03-14T16:24:37.561Z,1006
2023-03-14T16:34:38.725Z,1006
2023-03-14T16:44:39.900Z,1006
2023-03-14T16:54:41.259Z,1006
2023-03-14T17:04:42.522Z,1006
2023-03-14T17:14:43.706Z,1006
2023-03-14T17:24:44.877Z,1006
2023-03-14T17:34:46.033Z,1007
2023-03-14T17:44:47.248Z,1007
2023-03-14T17:54:48.446Z,1007
2023-03-14T18:04:49.992Z,1007
2023-03-14T18:14:51.523Z,1008
2023-03-14T18:24:52.715Z,1008
2023-03-14T18:34:53.950Z,1008
2023-03-14T18:44:55.140Z,1008
2023-03-14T18:54:56.256Z,1009
2023-03-14T19:04:57.402Z,1009
2023-03-14T19:14:58.578Z,1009
2023-03-14T19:24:59.771Z,1009
2023-03-14T19:35:01.151Z,1009
2023-03-14T19:45:02.837Z,1009
2023-03-14T19:55:04.777Z,1009
2023-03-14T20:05:08.224Z,1010
2023-03-14T20:15:09.850Z,1010
2023-03-14T20:25:11.521Z,1011
2023-03-14T20:35:12.832Z,1011
2023-03-14T20:45:14.007Z,1012
2023-03-14T20:55:15.259Z,1012
2023-03-14T21:05:16.607Z,1013
2023-03-14T21:15:17.957Z,1014
2023-03-14T21:25:19.090Z,1015
2023-03-14T21:35:20.352Z,1015
2023-03-14T21:45:21.564Z,1016
2023-03-14T21:55:22.710Z,1016
2023-03-14T22:05:24.175Z,1016
2023-03-14T22:15:25.345Z,1017
2023-03-14T22:25:26.545Z,1018
2023-03-14T22:35:27.804Z,1018
2023-03-14T22:45:29.055Z,1018
2023-03-14T22:55:30.764Z,1018
2023-03-14T23:05:32.042Z,1018
2023-03-14T23:15:33.176Z,1019
2023-03-14T23:25:44.826Z,1019
2023-03-14T23:35:53.624Z,1019
2023-03-14T23:45:54.863Z,1019
2023-03-14T23:55:56.014Z,1018
